createdAt,value
2022-10-25T00:00:01.168Z,15.00
2022-10-25T00:00:20.021Z,14.90
2022-10-25T00:00:29.425Z,14.90
2022-10-25T00:00:38.832Z,14.90
2022-10-25T00:00:48.248Z,14.90
2022-10-25T00:00:57.729Z,14.90
2022-10-25T00:01:07.210Z,14.80
2022-10-25T00:01:16.794Z,14.80
2022-10-25T00:01:26.200Z,14.80
2022-10-25T00:01:35.659Z,14.80
2022-10-25T00:01:45.136Z,14.70
2022-10-25T00:01:54.514Z,14.70
2022-10-25T00:02:04.048Z,14.70
2022-10-25T00:02:13.503Z,14.70
2022-10-25T00:02:22.891Z,14.70
2022-10-25T00:02:32.269Z,14.60
2022-10-25T00:02:41.749Z,14.60
2022-10-25T00:02:51.146Z,14.60
2022-10-25T00:03:10.123Z,14.60
2022-10-25T00:03:19.560Z,14.60
2022-10-25T00:03:28.996Z,14.60
2022-10-25T00:03:38.440Z,14.50
2022-10-25T00:03:47.891Z,14.50
2022-10-25T00:03:57.328Z,14.50
2022-10-25T00:04:06.883Z,14.50
2022-10-25T00:04:16.310Z,14.50
2022-10-25T00:04:25.680Z,14.40
2022-10-25T00:04:35.128Z,14.40
2022-10-25T00:04:44.607Z,14.40
2022-10-25T00:04:54.058Z,14.40
2022-10-25T00:05:03.495Z,14.40
2022-10-25T00:05:12.972Z,14.40
2022-10-25T00:05:22.428Z,14.40
2022-10-25T00:05:31.903Z,14.30
2022-10-25T00:05:41.371Z,14.30
2022-10-25T00:05:50.824Z,14.30
2022-10-25T00:06:09.740Z,14.30
2022-10-25T00:06:19.176Z,14.30
2022-10-25T00:06:28.623Z,14.30
2022-10-25T00:06:38.057Z,14.20
2022-10-25T00:06:47.492Z,14.20
2022-10-25T00:06:56.955Z,14.20
2022-10-25T00:07:06.431Z,14.20
2022-10-25T00:07:15.877Z,14.20
2022-10-25T00:07:25.380Z,14.20
2022-10-25T00:07:34.831Z,14.20
2022-10-25T00:07:44.698Z,14.20
2022-10-25T00:07:53.775Z,14.20
2022-10-25T00:08:03.231Z,14.20
2022-10-25T00:08:12.675Z,14.20
2022-10-25T00:08:22.150Z,14.20
2022-10-25T00:08:31.595Z,14.20
2022-10-25T00:08:41.047Z,14.10
2022-10-25T00:08:59.926Z,14.10
2022-10-25T00:09:09.417Z,14.10
2022-10-25T00:09:18.960Z,14.00
2022-10-25T00:09:28.419Z,14.10
2022-10-25T00:09:37.878Z,14.10
2022-10-25T00:09:47.326Z,14.10
2022-10-25T00:09:57.139Z,14.00
2022-10-25T00:10:06.589Z,14.00
2022-10-25T00:10:16.052Z,14.00
2022-10-25T00:10:25.879Z,14.00
2022-10-25T00:10:34.987Z,14.00
2022-10-25T00:10:44.464Z,13.90
2022-10-25T00:10:53.909Z,14.00
2022-10-25T00:11:03.367Z,13.90
2022-10-25T00:11:12.800Z,13.90
2022-10-25T00:11:22.243Z,13.90
2022-10-25T00:11:31.695Z,13.90
2022-10-25T00:11:41.133Z,13.90
2022-10-25T00:12:00.028Z,13.90
2022-10-25T00:12:09.465Z,13.80
2022-10-25T00:12:18.903Z,13.80
2022-10-25T00:12:28.407Z,13.80
2022-10-25T00:12:47.258Z,13.80
2022-10-25T00:12:56.709Z,13.80
2022-10-25T00:13:06.153Z,13.80
2022-10-25T00:13:15.575Z,13.80
2022-10-25T00:13:25.064Z,13.80
2022-10-25T00:13:34.527Z,13.70
2022-10-25T00:13:43.979Z,13.70
2022-10-25T00:13:53.485Z,13.70
2022-10-25T00:14:02.974Z,13.70
2022-10-25T00:14:12.437Z,13.70
2022-10-25T00:14:21.878Z,13.70
2022-10-25T00:14:31.441Z,13.70
2022-10-25T00:14:40.894Z,13.70
2022-10-25T00:14:59.817Z,13.70
2022-10-25T00:15:09.309Z,13.70
2022-10-25T00:15:19.065Z,13.70
2022-10-25T00:15:28.512Z,13.70
2022-10-25T00:15:37.987Z,13.70
2022-10-25T00:15:47.436Z,13.70
2022-10-25T00:15:56.883Z,13.70
2022-10-25T00:16:06.322Z,13.70
2022-10-25T00:16:15.798Z,13.70
2022-10-25T00:16:25.237Z,13.70
2022-10-25T00:16:34.667Z,13.70
2022-10-25T00:16:44.137Z,13.70
2022-10-25T00:16:53.597Z,13.70
2022-10-25T00:17:03.042Z,13.70
2022-10-25T00:17:12.493Z,13.60
2022-10-25T00:17:21.926Z,13.60
2022-10-25T00:17:31.395Z,13.60
2022-10-25T00:17:40.891Z,13.60
2022-10-25T00:17:59.814Z,13.60
2022-10-25T00:18:09.255Z,13.60
2022-10-25T00:18:18.762Z,13.60
2022-10-25T00:18:28.199Z,13.60
2022-10-25T00:18:37.649Z,13.60
2022-10-25T00:18:47.107Z,13.50
2022-10-25T00:18:56.629Z,13.60
2022-10-25T00:19:06.086Z,13.60
2022-10-25T00:19:15.526Z,13.50
2022-10-25T00:19:24.959Z,13.50
2022-10-25T00:19:34.404Z,13.50
2022-10-25T00:19:43.863Z,13.50
2022-10-25T00:19:53.391Z,13.50
2022-10-25T00:20:02.835Z,13.50
2022-10-25T00:20:12.292Z,13.50
2022-10-25T00:20:21.787Z,13.50
2022-10-25T00:20:31.246Z,13.50
2022-10-25T00:20:50.231Z,13.50
2022-10-25T00:20:59.615Z,13.50
2022-10-25T00:21:09.008Z,13.50
2022-10-25T00:21:18.470Z,13.50
2022-10-25T00:21:27.892Z,13.50
2022-10-25T00:21:37.357Z,13.50
2022-10-25T00:21:46.799Z,13.50
2022-10-25T00:21:56.234Z,13.40
2022-10-25T00:22:05.677Z,13.40
2022-10-25T00:22:15.149Z,13.50
2022-10-25T00:22:24.592Z,13.40
2022-10-25T00:22:34.044Z,13.40
2022-10-25T00:22:43.712Z,13.40
2022-10-25T00:22:52.890Z,13.40
2022-10-25T00:23:02.315Z,13.40
2022-10-25T00:23:11.737Z,13.40
2022-10-25T00:23:21.143Z,13.40
2022-10-25T00:23:39.996Z,13.40
2022-10-25T00:23:49.404Z,13.40
2022-10-25T00:23:58.833Z,13.40
2022-10-25T00:24:08.249Z,13.40
2022-10-25T00:24:17.671Z,13.40
2022-10-25T00:24:27.106Z,13.30
2022-10-25T00:24:36.540Z,13.30
2022-10-25T00:24:45.969Z,13.30
2022-10-25T00:24:55.405Z,13.30
2022-10-25T00:25:04.836Z,13.30
2022-10-25T00:25:14.276Z,13.30
2022-10-25T00:25:23.858Z,13.30
2022-10-25T00:25:33.299Z,13.30
2022-10-25T00:25:42.746Z,13.30
2022-10-25T00:25:52.165Z,13.30
2022-10-25T00:26:01.587Z,13.30
2022-10-25T00:26:11.005Z,13.30
2022-10-25T00:26:29.844Z,13.30
2022-10-25T00:26:39.258Z,13.30
2022-10-25T00:26:48.661Z,13.30
2022-10-25T00:26:58.083Z,13.20
2022-10-25T00:27:07.529Z,13.30
2022-10-25T00:27:17.028Z,13.30
2022-10-25T00:27:26.457Z,13.20
2022-10-25T00:27:35.888Z,13.20
2022-10-25T00:27:45.280Z,13.20
2022-10-25T00:27:54.729Z,13.20
2022-10-25T00:28:04.288Z,13.20
2022-10-25T00:28:13.637Z,13.20
2022-10-25T00:28:23.034Z,13.20
2022-10-25T00:28:32.488Z,13.20
2022-10-25T00:28:41.948Z,13.20
2022-10-25T00:28:51.422Z,13.20
2022-10-25T00:29:00.823Z,13.20
2022-10-25T00:29:19.723Z,13.20
2022-10-25T00:29:29.094Z,13.20
2022-10-25T00:29:38.511Z,13.20
2022-10-25T00:29:47.942Z,13.20
2022-10-25T00:29:57.395Z,13.10
2022-10-25T00:30:06.841Z,13.10
2022-10-25T00:30:16.285Z,13.10
2022-10-25T00:30:25.823Z,13.10
2022-10-25T00:30:35.241Z,13.10
2022-10-25T00:30:44.694Z,13.10
2022-10-25T00:30:54.113Z,13.10
2022-10-25T00:31:03.562Z,13.10
2022-10-25T00:31:12.973Z,13.10
2022-10-25T00:31:22.408Z,13.10
2022-10-25T00:31:31.819Z,13.10
2022-10-25T00:31:41.226Z,13.10
2022-10-25T00:32:00.061Z,13.20
2022-10-25T00:32:09.480Z,13.10
2022-10-25T00:32:18.916Z,13.10
2022-10-25T00:32:28.362Z,13.10
2022-10-25T00:32:37.793Z,13.10
2022-10-25T00:32:47.527Z,13.10
2022-10-25T00:32:56.711Z,13.10
2022-10-25T00:33:06.126Z,13.10
2022-10-25T00:33:15.540Z,13.10
2022-10-25T00:33:24.962Z,13.10
2022-10-25T00:33:34.399Z,13.10
2022-10-25T00:33:43.848Z,13.10
2022-10-25T00:33:53.296Z,13.10
2022-10-25T00:34:02.688Z,13.10
2022-10-25T00:34:12.129Z,13.10
2022-10-25T00:34:21.569Z,13.10
2022-10-25T00:34:31.001Z,13.10
2022-10-25T00:34:49.890Z,13.10
2022-10-25T00:34:59.328Z,13.10
2022-10-25T00:35:08.758Z,13.10
2022-10-25T00:35:18.157Z,13.10
2022-10-25T00:35:27.628Z,13.10
2022-10-25T00:35:37.047Z,13.10
2022-10-25T00:35:46.542Z,13.10
2022-10-25T00:35:55.983Z,13.10
2022-10-25T00:36:05.431Z,13.10
2022-10-25T00:36:14.863Z,13.10
2022-10-25T00:36:24.308Z,13.10
2022-10-25T00:36:33.727Z,13.10
2022-10-25T00:36:43.157Z,13.10
2022-10-25T00:36:52.606Z,13.10
2022-10-25T00:37:02.047Z,13.10
2022-10-25T00:37:11.502Z,13.10
2022-10-25T00:37:20.986Z,13.10
2022-10-25T00:37:39.945Z,13.10
2022-10-25T00:37:49.313Z,13.10
2022-10-25T00:37:58.721Z,13.10
2022-10-25T00:38:08.144Z,13.10
2022-10-25T00:38:17.589Z,13.10
2022-10-25T00:38:27.004Z,13.10
2022-10-25T00:38:36.435Z,13.10
2022-10-25T00:38:45.909Z,13.10
2022-10-25T00:38:55.348Z,13.10
2022-10-25T00:39:04.774Z,13.10
2022-10-25T00:39:14.199Z,13.10
2022-10-25T00:39:23.664Z,13.10
2022-10-25T00:39:33.082Z,13.10
2022-10-25T00:39:42.527Z,13.10
2022-10-25T00:39:51.940Z,13.00
2022-10-25T00:40:01.378Z,13.10
2022-10-25T00:40:20.256Z,13.10
2022-10-25T00:40:29.722Z,13.00
2022-10-25T00:40:39.162Z,13.00
2022-10-25T00:40:48.580Z,13.00
2022-10-25T00:40:58.034Z,13.10
2022-10-25T00:41:07.464Z,13.00
2022-10-25T00:41:16.870Z,13.10
2022-10-25T00:41:26.295Z,13.10
2022-10-25T00:41:35.719Z,13.00
2022-10-25T00:41:45.161Z,13.00
2022-10-25T00:41:54.622Z,13.00
2022-10-25T00:42:04.037Z,13.00
2022-10-25T00:42:13.496Z,13.00
2022-10-25T00:42:22.925Z,13.00
2022-10-25T00:42:32.357Z,13.00
2022-10-25T00:42:41.816Z,13.00
2022-10-25T00:42:51.206Z,13.00
2022-10-25T00:43:10.076Z,13.00
2022-10-25T00:43:19.544Z,13.00
2022-10-25T00:43:28.974Z,13.00
2022-10-25T00:43:38.383Z,13.00
2022-10-25T00:43:47.792Z,13.00
2022-10-25T00:43:57.226Z,13.00
2022-10-25T00:44:06.660Z,13.00
2022-10-25T00:44:16.075Z,13.00
2022-10-25T00:44:25.493Z,13.00
2022-10-25T00:44:34.905Z,13.00
2022-10-25T00:44:44.339Z,13.00
2022-10-25T00:44:53.753Z,13.00
2022-10-25T00:45:03.190Z,13.00
2022-10-25T00:45:12.617Z,13.00
2022-10-25T00:45:22.034Z,13.00
2022-10-25T00:45:31.521Z,13.00
2022-10-25T00:45:40.963Z,13.00
2022-10-25T00:46:09.303Z,13.00
2022-10-25T00:46:18.710Z,13.00
2022-10-25T00:46:28.127Z,13.00
2022-10-25T00:46:37.589Z,13.00
2022-10-25T00:46:47.022Z,13.00
2022-10-25T00:46:56.470Z,13.00
2022-10-25T00:47:05.918Z,13.00
2022-10-25T00:47:15.363Z,13.00
2022-10-25T00:47:24.775Z,13.00
2022-10-25T00:47:34.225Z,13.00
2022-10-25T00:47:43.964Z,13.00
2022-10-25T00:47:53.120Z,13.00
2022-10-25T00:48:02.564Z,13.00
2022-10-25T00:48:11.985Z,13.00
2022-10-25T00:48:21.406Z,13.00
2022-10-25T00:48:30.850Z,13.00
2022-10-25T00:48:49.679Z,13.00
2022-10-25T00:48:59.141Z,13.00
2022-10-25T00:49:08.590Z,13.00
2022-10-25T00:49:18.008Z,13.00
2022-10-25T00:49:27.430Z,13.00
2022-10-25T00:49:36.861Z,13.00
2022-10-25T00:49:46.277Z,13.00
2022-10-25T00:49:55.819Z,13.00
2022-10-25T00:50:05.228Z,13.00
2022-10-25T00:50:14.660Z,13.00
2022-10-25T00:50:24.104Z,13.00
2022-10-25T00:50:33.571Z,13.00
2022-10-25T00:50:43.009Z,13.00
2022-10-25T00:50:52.493Z,13.00
2022-10-25T00:51:01.942Z,13.00
2022-10-25T00:51:11.382Z,13.00
2022-10-25T00:51:30.211Z,13.00
2022-10-25T00:51:39.669Z,13.00
2022-10-25T00:51:49.099Z,13.00
2022-10-25T00:51:58.495Z,13.00
2022-10-25T00:52:07.914Z,13.00
2022-10-25T00:52:17.317Z,13.00
2022-10-25T00:52:26.735Z,13.00
2022-10-25T00:52:36.169Z,13.00
2022-10-25T00:52:45.594Z,13.00
2022-10-25T00:52:55.026Z,13.00
2022-10-25T00:53:04.472Z,13.00
2022-10-25T00:53:13.929Z,13.00
2022-10-25T00:53:23.352Z,13.00
2022-10-25T00:53:32.861Z,13.00
2022-10-25T00:53:42.290Z,13.00
2022-10-25T00:53:51.708Z,13.10
2022-10-25T00:54:01.129Z,13.00
2022-10-25T00:54:20.040Z,13.00
2022-10-25T00:54:29.463Z,12.90
2022-10-25T00:54:38.888Z,13.00
2022-10-25T00:54:48.290Z,13.00
2022-10-25T00:54:57.711Z,13.00
2022-10-25T00:55:07.121Z,13.00
2022-10-25T00:55:16.508Z,13.00
2022-10-25T00:55:25.947Z,13.00
2022-10-25T00:55:35.392Z,13.00
2022-10-25T00:55:44.799Z,13.00
2022-10-25T00:55:54.238Z,13.00
2022-10-25T00:56:03.653Z,13.00
2022-10-25T00:56:13.076Z,13.00
2022-10-25T00:56:22.491Z,13.00
2022-10-25T00:56:31.921Z,13.00
2022-10-25T00:56:41.361Z,13.00
2022-10-25T00:57:00.197Z,13.00
2022-10-25T00:57:09.618Z,13.00
2022-10-25T00:57:19.030Z,13.00
2022-10-25T00:57:28.454Z,13.00
2022-10-25T00:57:37.882Z,13.00
2022-10-25T00:57:47.713Z,13.00
2022-10-25T00:57:56.742Z,13.00
2022-10-25T00:58:06.181Z,13.00
2022-10-25T00:58:15.626Z,13.00
2022-10-25T00:58:25.154Z,13.00
2022-10-25T00:58:34.652Z,13.00
2022-10-25T00:58:44.140Z,13.00
2022-10-25T00:58:53.579Z,13.00
2022-10-25T00:59:03.042Z,13.00
2022-10-25T00:59:12.491Z,13.00
2022-10-25T00:59:21.923Z,13.00
2022-10-25T00:59:31.353Z,13.00
2022-10-25T00:59:50.214Z,13.00
2022-10-25T00:59:59.634Z,13.00
2022-10-25T01:00:09.061Z,13.00
2022-10-25T01:00:18.509Z,13.00
2022-10-25T01:00:28.012Z,13.00
2022-10-25T01:00:40.739Z,13.00
2022-10-25T01:00:50.225Z,13.00
2022-10-25T01:00:59.647Z,13.00
2022-10-25T01:01:09.136Z,13.00
2022-10-25T01:01:18.693Z,13.00
2022-10-25T01:01:28.160Z,13.00
2022-10-25T01:01:37.579Z,13.00
2022-10-25T01:01:47.043Z,13.00
2022-10-25T01:01:56.616Z,13.00
2022-10-25T01:02:05.897Z,13.00
2022-10-25T01:02:15.357Z,12.90
2022-10-25T01:02:24.752Z,13.00
2022-10-25T01:02:34.169Z,12.90
2022-10-25T01:02:43.625Z,13.00
2022-10-25T01:02:53.103Z,13.00
2022-10-25T01:03:02.384Z,13.00
2022-10-25T01:03:11.812Z,13.00
2022-10-25T01:03:21.227Z,13.00
2022-10-25T01:03:40.161Z,13.00
2022-10-25T01:03:49.581Z,13.00
2022-10-25T01:03:59.031Z,13.00
2022-10-25T01:04:08.459Z,13.00
2022-10-25T01:04:17.890Z,12.90
2022-10-25T01:04:27.329Z,13.00
2022-10-25T01:04:36.732Z,13.00
2022-10-25T01:04:46.223Z,13.00
2022-10-25T01:04:55.682Z,12.90
2022-10-25T01:05:05.095Z,12.90
2022-10-25T01:05:14.513Z,12.90
2022-10-25T01:05:23.971Z,12.90
2022-10-25T01:05:33.396Z,12.90
2022-10-25T01:05:42.837Z,12.90
2022-10-25T01:05:52.261Z,12.90
2022-10-25T01:06:01.696Z,12.90
2022-10-25T01:06:11.104Z,12.90
2022-10-25T01:06:29.958Z,12.90
2022-10-25T01:06:39.422Z,12.90
2022-10-25T01:06:48.844Z,12.90
2022-10-25T01:06:58.327Z,12.90
2022-10-25T01:07:07.757Z,12.90
2022-10-25T01:07:17.181Z,12.90
2022-10-25T01:07:26.626Z,12.90
2022-10-25T01:07:36.067Z,12.90
2022-10-25T01:07:45.764Z,12.90
2022-10-25T01:07:54.921Z,12.90
2022-10-25T01:08:04.364Z,12.90
2022-10-25T01:08:13.846Z,12.90
2022-10-25T01:08:23.309Z,12.90
2022-10-25T01:08:32.747Z,12.90
2022-10-25T01:08:42.188Z,12.90
2022-10-25T01:08:51.624Z,12.90
2022-10-25T01:09:01.045Z,12.90
2022-10-25T01:09:19.885Z,12.90
2022-10-25T01:09:29.314Z,12.80
2022-10-25T01:09:38.759Z,12.80
2022-10-25T01:09:48.303Z,12.80
2022-10-25T01:09:57.733Z,12.80
2022-10-25T01:10:07.159Z,12.80
2022-10-25T01:10:16.576Z,12.80
2022-10-25T01:10:26.022Z,12.80
2022-10-25T01:10:35.454Z,12.80
2022-10-25T01:10:44.903Z,12.90
2022-10-25T01:10:54.319Z,12.80
2022-10-25T01:11:03.798Z,12.80
2022-10-25T01:11:13.288Z,12.90
2022-10-25T01:11:22.752Z,12.80
2022-10-25T01:11:32.140Z,12.90
2022-10-25T01:11:41.596Z,12.80
2022-10-25T01:11:51.015Z,12.80
2022-10-25T01:12:09.864Z,12.80
2022-10-25T01:12:19.287Z,12.80
2022-10-25T01:12:28.697Z,12.80
2022-10-25T01:12:38.129Z,12.80
2022-10-25T01:12:50.056Z,12.80
2022-10-25T01:12:57.404Z,12.80
2022-10-25T01:13:06.515Z,12.80
2022-10-25T01:13:15.921Z,12.80
2022-10-25T01:13:25.361Z,12.80
2022-10-25T01:13:34.828Z,12.80
2022-10-25T01:13:44.276Z,12.80
2022-10-25T01:13:53.688Z,12.80
2022-10-25T01:14:03.127Z,12.80
2022-10-25T01:14:12.550Z,12.80
2022-10-25T01:14:21.993Z,12.90
2022-10-25T01:14:31.492Z,12.80
2022-10-25T01:14:40.915Z,12.80
2022-10-25T01:14:59.743Z,12.80
2022-10-25T01:15:09.172Z,12.80
2022-10-25T01:15:18.594Z,12.80
2022-10-25T01:15:27.997Z,12.80
2022-10-25T01:15:37.465Z,12.90
2022-10-25T01:15:46.922Z,12.80
2022-10-25T01:15:56.323Z,12.80
2022-10-25T01:16:05.768Z,12.80
2022-10-25T01:16:15.185Z,12.90
2022-10-25T01:16:24.600Z,12.80
2022-10-25T01:16:34.030Z,12.80
2022-10-25T01:16:43.447Z,12.90
2022-10-25T01:16:52.875Z,12.80
2022-10-25T01:17:02.285Z,12.80
2022-10-25T01:17:11.739Z,12.80
2022-10-25T01:17:21.149Z,12.80
2022-10-25T01:17:40.039Z,12.80
2022-10-25T01:17:49.451Z,12.80
2022-10-25T01:17:58.879Z,12.80
2022-10-25T01:18:08.302Z,12.80
2022-10-25T01:18:17.787Z,12.80
2022-10-25T01:18:27.205Z,12.80
2022-10-25T01:18:36.620Z,12.80
2022-10-25T01:18:46.065Z,12.80
2022-10-25T01:18:55.478Z,12.80
2022-10-25T01:19:04.917Z,12.80
2022-10-25T01:19:14.368Z,12.80
2022-10-25T01:19:23.923Z,12.80
2022-10-25T01:19:42.609Z,12.90
2022-10-25T01:19:52.022Z,12.90
2022-10-25T01:20:01.492Z,12.90
2022-10-25T01:20:10.897Z,12.90
2022-10-25T01:20:29.718Z,12.90
2022-10-25T01:20:39.122Z,13.00
2022-10-25T01:20:48.581Z,13.00
2022-10-25T01:20:57.995Z,13.00
2022-10-25T01:21:07.423Z,13.00
2022-10-25T01:21:16.859Z,13.10
2022-10-25T01:21:26.300Z,13.10
2022-10-25T01:21:35.730Z,13.10
2022-10-25T01:21:45.162Z,13.10
2022-10-25T01:21:54.566Z,13.20
2022-10-25T01:22:03.980Z,13.20
2022-10-25T01:22:13.417Z,13.30
2022-10-25T01:22:22.822Z,13.30
2022-10-25T01:22:32.223Z,13.30
2022-10-25T01:22:41.644Z,13.40
2022-10-25T01:22:51.064Z,13.40
2022-10-25T01:23:09.931Z,13.50
2022-10-25T01:23:19.330Z,13.50
2022-10-25T01:23:28.740Z,13.50
2022-10-25T01:23:38.149Z,13.60
2022-10-25T01:23:47.570Z,13.60
2022-10-25T01:23:57.001Z,13.60
2022-10-25T01:24:06.489Z,13.60
2022-10-25T01:24:15.888Z,13.60
2022-10-25T01:24:25.403Z,13.60
2022-10-25T01:24:34.841Z,13.70
2022-10-25T01:24:44.288Z,13.70
2022-10-25T01:24:53.702Z,13.70
2022-10-25T01:25:03.109Z,13.70
2022-10-25T01:25:12.536Z,13.70
2022-10-25T01:25:21.931Z,13.80
2022-10-25T01:25:31.388Z,13.80
2022-10-25T01:25:40.840Z,13.80
2022-10-25T01:25:59.735Z,13.90
2022-10-25T01:26:09.160Z,13.90
2022-10-25T01:26:18.599Z,13.90
2022-10-25T01:26:28.047Z,13.90
2022-10-25T01:26:37.475Z,13.90
2022-10-25T01:26:46.886Z,13.90
2022-10-25T01:26:56.308Z,14.00
2022-10-25T01:27:05.717Z,14.00
2022-10-25T01:27:15.139Z,14.00
2022-10-25T01:27:24.560Z,14.00
2022-10-25T01:27:33.975Z,14.00
2022-10-25T01:27:43.453Z,14.00
2022-10-25T01:27:52.853Z,14.10
2022-10-25T01:28:02.328Z,14.10
2022-10-25T01:28:11.650Z,14.10
2022-10-25T01:28:21.088Z,14.10
2022-10-25T01:28:40.010Z,14.10
2022-10-25T01:28:49.417Z,14.10
2022-10-25T01:28:58.849Z,14.20
2022-10-25T01:29:08.266Z,14.20
2022-10-25T01:29:17.677Z,14.20
2022-10-25T01:29:27.137Z,14.20
2022-10-25T01:29:36.520Z,14.20
2022-10-25T01:29:45.925Z,14.20
2022-10-25T01:29:55.371Z,14.20
2022-10-25T01:30:04.839Z,14.20
2022-10-25T01:30:14.221Z,14.30
2022-10-25T01:30:23.608Z,14.30
2022-10-25T01:30:33.022Z,14.30
2022-10-25T01:30:42.465Z,14.30
2022-10-25T01:30:51.920Z,14.30
2022-10-25T01:31:01.369Z,14.30
2022-10-25T01:31:20.187Z,14.30
2022-10-25T01:31:29.610Z,14.30
2022-10-25T01:31:39.022Z,14.30
2022-10-25T01:31:48.457Z,14.30
2022-10-25T01:31:57.867Z,14.30
2022-10-25T01:32:07.282Z,14.30
2022-10-25T01:32:16.704Z,14.30
2022-10-25T01:32:26.128Z,14.30
2022-10-25T01:32:35.532Z,14.40
2022-10-25T01:32:45.330Z,14.40
2022-10-25T01:32:54.340Z,14.40
2022-10-25T01:33:03.779Z,14.40
2022-10-25T01:33:13.253Z,14.40
2022-10-25T01:33:22.673Z,14.40
2022-10-25T01:33:32.077Z,14.40
2022-10-25T01:33:41.524Z,14.50
2022-10-25T01:33:50.915Z,14.50
2022-10-25T01:34:09.736Z,14.60
2022-10-25T01:34:19.166Z,14.50
2022-10-25T01:34:28.573Z,14.50
2022-10-25T01:34:37.993Z,14.50
2022-10-25T01:34:47.395Z,14.50
2022-10-25T01:34:56.873Z,14.50
2022-10-25T01:35:06.280Z,14.50
2022-10-25T01:35:15.720Z,14.60
2022-10-25T01:35:25.335Z,14.60
2022-10-25T01:35:34.752Z,14.60
2022-10-25T01:35:44.202Z,14.60
2022-10-25T01:35:53.610Z,14.60
2022-10-25T01:36:03.138Z,14.60
2022-10-25T01:36:21.862Z,14.60
2022-10-25T01:36:31.287Z,14.60
2022-10-25T01:36:50.096Z,14.70
2022-10-25T01:36:59.489Z,14.70
2022-10-25T01:37:08.900Z,14.70
2022-10-25T01:37:18.333Z,14.70
2022-10-25T01:37:27.746Z,14.70
2022-10-25T01:37:37.182Z,14.70
2022-10-25T01:37:46.907Z,14.70
2022-10-25T01:37:56.019Z,14.70
2022-10-25T01:38:05.444Z,14.70
2022-10-25T01:38:14.885Z,14.70
2022-10-25T01:38:24.313Z,14.70
2022-10-25T01:38:33.699Z,14.70
2022-10-25T01:38:43.112Z,14.70
2022-10-25T01:38:52.531Z,14.70
2022-10-25T01:39:01.940Z,14.70
2022-10-25T01:39:11.402Z,14.70
2022-10-25T01:39:20.826Z,14.80
2022-10-25T01:39:39.654Z,14.80
2022-10-25T01:39:49.085Z,14.80
2022-10-25T01:39:58.509Z,14.80
2022-10-25T01:40:07.902Z,14.80
2022-10-25T01:40:17.315Z,14.80
2022-10-25T01:40:26.752Z,14.80
2022-10-25T01:40:36.183Z,14.80
2022-10-25T01:40:45.580Z,14.80
2022-10-25T01:40:54.995Z,14.90
2022-10-25T01:41:04.413Z,14.90
2022-10-25T01:41:13.815Z,14.90
2022-10-25T01:41:23.326Z,14.80
2022-10-25T01:41:32.754Z,14.80
2022-10-25T01:41:42.156Z,14.80
2022-10-25T01:41:51.587Z,14.80
2022-10-25T01:42:01.004Z,14.80
2022-10-25T01:42:19.833Z,14.80
2022-10-25T01:42:29.218Z,14.80
2022-10-25T01:42:38.646Z,14.80
2022-10-25T01:42:48.051Z,14.80
2022-10-25T01:42:57.494Z,14.90
2022-10-25T01:43:06.944Z,14.90
2022-10-25T01:43:16.322Z,14.80
2022-10-25T01:43:25.745Z,14.80
2022-10-25T01:43:35.157Z,14.90
2022-10-25T01:43:44.607Z,14.80
2022-10-25T01:43:54.031Z,14.80
2022-10-25T01:44:03.433Z,14.80
2022-10-25T01:44:12.887Z,14.80
2022-10-25T01:44:22.430Z,14.90
2022-10-25T01:44:31.762Z,14.90
2022-10-25T01:44:41.167Z,14.90
2022-10-25T01:45:00.137Z,14.90
2022-10-25T01:45:09.507Z,14.90
2022-10-25T01:45:18.947Z,14.90
2022-10-25T01:45:28.393Z,14.90
2022-10-25T01:45:37.798Z,14.90
2022-10-25T01:45:47.230Z,14.90
2022-10-25T01:45:56.678Z,14.90
2022-10-25T01:46:06.114Z,14.90
2022-10-25T01:46:15.526Z,14.90
2022-10-25T01:46:24.935Z,14.90
2022-10-25T01:46:34.353Z,14.90
2022-10-25T01:46:43.872Z,14.90
2022-10-25T01:46:53.318Z,14.90
2022-10-25T01:47:02.739Z,14.90
2022-10-25T01:47:12.158Z,14.90
2022-10-25T01:47:21.577Z,14.90
2022-10-25T01:47:31.012Z,14.90
2022-10-25T01:47:50.086Z,14.90
2022-10-25T01:47:59.288Z,14.90
2022-10-25T01:48:08.713Z,14.90
2022-10-25T01:48:18.138Z,14.90
2022-10-25T01:48:27.555Z,14.90
2022-10-25T01:48:36.988Z,14.90
2022-10-25T01:48:46.403Z,14.90
2022-10-25T01:48:55.798Z,14.90
2022-10-25T01:49:05.213Z,14.90
2022-10-25T01:49:14.632Z,14.90
2022-10-25T01:49:24.034Z,14.90
2022-10-25T01:49:33.459Z,14.80
2022-10-25T01:49:42.898Z,14.80
2022-10-25T01:49:52.334Z,14.80
2022-10-25T01:50:01.797Z,14.80
2022-10-25T01:50:11.229Z,14.80
2022-10-25T01:50:30.024Z,14.80
2022-10-25T01:50:39.467Z,14.80
2022-10-25T01:50:48.900Z,14.80
2022-10-25T01:50:58.352Z,14.80
2022-10-25T01:51:07.772Z,14.80
2022-10-25T01:51:17.178Z,14.80
2022-10-25T01:51:26.574Z,14.80
2022-10-25T01:51:35.993Z,14.80
2022-10-25T01:51:45.433Z,14.80
2022-10-25T01:51:54.831Z,14.80
2022-10-25T01:52:04.232Z,14.80
2022-10-25T01:52:13.647Z,14.80
2022-10-25T01:52:23.041Z,14.80
2022-10-25T01:52:32.495Z,14.80
2022-10-25T01:52:41.938Z,14.80
2022-10-25T01:52:51.438Z,14.80
2022-10-25T01:53:10.244Z,14.80
2022-10-25T01:53:19.645Z,14.80
2022-10-25T01:53:29.055Z,14.80
2022-10-25T01:53:38.458Z,14.70
2022-10-25T01:53:47.863Z,14.70
2022-10-25T01:53:57.293Z,14.70
2022-10-25T01:54:06.705Z,14.70
2022-10-25T01:54:16.106Z,14.70
2022-10-25T01:54:25.508Z,14.70
2022-10-25T01:54:34.919Z,14.70
2022-10-25T01:54:44.348Z,14.70
2022-10-25T01:54:53.766Z,14.70
2022-10-25T01:55:03.193Z,14.60
2022-10-25T01:55:12.597Z,14.60
2022-10-25T01:55:22.005Z,14.60
2022-10-25T01:55:31.428Z,14.60
2022-10-25T01:55:40.839Z,14.60
2022-10-25T01:55:59.701Z,14.60
2022-10-25T01:56:09.114Z,14.60
2022-10-25T01:56:18.536Z,14.60
2022-10-25T01:56:27.946Z,14.70
2022-10-25T01:56:37.409Z,14.70
2022-10-25T01:56:46.838Z,14.70
2022-10-25T01:56:56.241Z,14.70
2022-10-25T01:57:05.659Z,14.70
2022-10-25T01:57:15.065Z,14.70
2022-10-25T01:57:24.472Z,14.70
2022-10-25T01:57:33.912Z,14.70
2022-10-25T01:57:43.713Z,14.70
2022-10-25T01:57:52.758Z,14.70
2022-10-25T01:58:02.169Z,14.70
2022-10-25T01:58:11.601Z,14.80
2022-10-25T01:58:20.982Z,14.80
2022-10-25T01:58:39.875Z,14.80
2022-10-25T01:58:49.293Z,14.80
2022-10-25T01:58:58.710Z,14.80
2022-10-25T01:59:08.130Z,14.80
2022-10-25T01:59:17.552Z,14.80
2022-10-25T01:59:26.960Z,14.80
2022-10-25T01:59:36.398Z,14.80
2022-10-25T01:59:45.810Z,14.80
2022-10-25T01:59:55.260Z,14.80
2022-10-25T02:00:04.690Z,14.80
2022-10-25T02:00:14.122Z,14.80
2022-10-25T02:00:23.529Z,14.80
2022-10-25T02:00:33.034Z,14.70
2022-10-25T02:00:42.439Z,14.70
2022-10-25T02:00:51.899Z,14.70
2022-10-25T02:01:01.435Z,14.70
2022-10-25T02:01:20.258Z,14.70
2022-10-25T02:01:29.830Z,14.70
2022-10-25T02:01:39.268Z,14.70
2022-10-25T02:01:48.503Z,14.70
2022-10-25T02:01:57.929Z,14.70
2022-10-25T02:02:07.334Z,14.70
2022-10-25T02:02:16.755Z,14.70
2022-10-25T02:02:26.182Z,14.80
2022-10-25T02:02:35.592Z,14.80
2022-10-25T02:02:45.417Z,14.80
2022-10-25T02:02:54.473Z,14.80
2022-10-25T02:03:03.904Z,14.80
2022-10-25T02:03:13.295Z,14.80
2022-10-25T02:03:22.723Z,14.80
2022-10-25T02:03:32.154Z,14.80
2022-10-25T02:03:41.587Z,14.80
2022-10-25T02:03:50.994Z,14.80
2022-10-25T02:04:09.801Z,14.80
2022-10-25T02:04:19.225Z,14.90
2022-10-25T02:04:28.661Z,14.90
2022-10-25T02:04:38.084Z,14.90
2022-10-25T02:04:47.660Z,14.90
2022-10-25T02:04:57.083Z,14.90
2022-10-25T02:05:06.493Z,14.90
2022-10-25T02:05:15.913Z,14.90
2022-10-25T02:05:25.332Z,14.90
2022-10-25T02:05:34.751Z,14.90
2022-10-25T02:05:44.188Z,14.90
2022-10-25T02:05:53.595Z,14.90
2022-10-25T02:06:03.045Z,14.90
2022-10-25T02:06:12.434Z,14.90
2022-10-25T02:06:21.858Z,14.90
2022-10-25T02:06:31.280Z,14.90
2022-10-25T02:06:50.127Z,14.90
2022-10-25T02:06:59.538Z,14.90
2022-10-25T02:07:08.975Z,14.80
2022-10-25T02:07:18.387Z,14.80
2022-10-25T02:07:27.799Z,14.80
2022-10-25T02:07:37.198Z,14.80
2022-10-25T02:07:46.595Z,14.80
2022-10-25T02:07:56.009Z,14.80
2022-10-25T02:08:05.447Z,14.80
2022-10-25T02:08:14.891Z,14.80
2022-10-25T02:08:24.340Z,14.80
2022-10-25T02:08:33.753Z,14.80
2022-10-25T02:08:43.169Z,14.80
2022-10-25T02:08:52.604Z,14.80
2022-10-25T02:09:02.029Z,14.80
2022-10-25T02:09:11.461Z,14.80
2022-10-25T02:09:20.868Z,14.80